Terminal Aerodrome Forecast
Issued by NWS

Home | Current Version | Previous Version | Text Only | Print | Product List | Glossary On
Versions: 1 2 3 4 5 6 7 8 9 10 11 12 13 14 15 16
000
FTUS42 KGSP 292331
TAFAND
TAF
KAND 292331Z 3000/3024 13005KT P6SM FEW050
     FM300800 00000KT 6SM BR FEW250
     FM301000 00000KT 5SM BR SCT250
     FM301200 09003KT P6SM BKN015
     FM301500 15003KT P6SM BKN035
     FM301800 15004KT P6SM SCT050=

USA.gov is the U.S. government's official web portal to all federal, state and local government web resources and services.